createdAt,value
2023-08-03T00:01:28.339Z,988.44
2023-08-03T00:03:13.354Z,988.37
2023-08-03T00:04:58.325Z,988.37
2023-08-03T00:06:43.338Z,988.41
2023-08-03T00:08:28.314Z,988.5
2023-08-03T00:10:13.322Z,988.51
2023-08-03T00:11:58.317Z,988.4
2023-08-03T00:13:43.324Z,988.19
2023-08-03T00:15:28.348Z,988.44
2023-08-03T00:17:13.319Z,988.33
2023-08-03T00:18:58.328Z,988.3
2023-08-03T00:20:43.370Z,988.41
2023-08-03T00:22:28.339Z,988.26
2023-08-03T00:24:13.342Z,988.26
2023-08-03T00:25:58.346Z,988.36
2023-08-03T00:27:43.398Z,988.22
2023-08-03T00:29:28.332Z,988.34
2023-08-03T00:31:13.403Z,988.36
2023-08-03T00:32:58.395Z,988.39
2023-08-03T00:34:43.349Z,988.49
2023-08-03T00:36:28.381Z,988.37
2023-08-03T00:38:13.348Z,988.3
2023-08-03T00:39:58.388Z,988.55
2023-08-03T00:41:43.498Z,988.53
2023-08-03T00:43:28.376Z,988.55
2023-08-03T00:45:13.364Z,988.58
2023-08-03T00:46:58.446Z,988.58
2023-08-03T00:48:43.350Z,988.56
2023-08-03T00:50:28.376Z,988.77
2023-08-03T00:52:13.394Z,988.62
2023-08-03T00:53:58.373Z,988.74
2023-08-03T00:55:43.398Z,988.68
2023-08-03T00:57:28.369Z,988.78
2023-08-03T00:59:13.406Z,988.75
2023-08-03T01:00:58.427Z,988.82
2023-08-03T01:02:43.411Z,988.87
2023-08-03T01:04:28.384Z,988.86
2023-08-03T01:06:13.411Z,988.91
2023-08-03T01:07:58.414Z,988.84
2023-08-03T01:09:43.385Z,989
2023-08-03T01:11:28.415Z,989.1
2023-08-03T01:13:13.410Z,988.95
2023-08-03T01:14:58.413Z,989.09
2023-08-03T01:16:43.479Z,989.16
2023-08-03T01:18:28.414Z,989.19
2023-08-03T01:20:13.408Z,989.3
2023-08-03T01:21:58.413Z,989.29
2023-08-03T01:23:43.450Z,989.37
2023-08-03T01:25:28.408Z,989.48
2023-08-03T01:27:13.426Z,989.44
2023-08-03T01:28:58.417Z,989.4
2023-08-03T01:30:43.430Z,989.5
2023-08-03T01:32:28.462Z,989.41
2023-08-03T01:34:13.424Z,989.44
2023-08-03T01:35:58.441Z,989.58
2023-08-03T01:37:43.457Z,989.68
2023-08-03T01:39:28.470Z,989.59
2023-08-03T01:41:13.428Z,989.62
2023-08-03T01:42:58.444Z,989.72
2023-08-03T01:44:43.422Z,989.77
2023-08-03T01:46:28.455Z,989.64
2023-08-03T01:48:13.480Z,989.74
2023-08-03T01:49:58.444Z,989.76
2023-08-03T01:51:43.580Z,989.75
2023-08-03T01:53:28.451Z,989.73
2023-08-03T01:55:13.472Z,989.73
2023-08-03T01:56:58.444Z,989.68
2023-08-03T01:58:43.462Z,989.71
2023-08-03T02:00:28.468Z,989.8
2023-08-03T02:02:13.481Z,989.77
2023-08-03T02:03:58.487Z,989.77
2023-08-03T02:05:43.506Z,989.83
2023-08-03T02:07:28.457Z,989.86
2023-08-03T02:09:13.499Z,989.9
2023-08-03T02:10:58.522Z,989.81
2023-08-03T02:12:43.465Z,989.95
2023-08-03T02:14:28.476Z,989.88
2023-08-03T02:16:23.173Z,990.03
2023-08-03T02:17:58.488Z,990
2023-08-03T02:19:43.484Z,990.03
2023-08-03T02:21:28.482Z,990.02
2023-08-03T02:23:13.495Z,990
2023-08-03T02:24:58.493Z,990.15
2023-08-03T02:26:43.512Z,990.07
2023-08-03T02:28:28.496Z,990.11
2023-08-03T02:30:13.500Z,990.09
2023-08-03T02:31:58.494Z,990.17
2023-08-03T02:33:43.523Z,990.18
2023-08-03T02:35:28.517Z,990.15
2023-08-03T02:37:13.522Z,990.11
2023-08-03T02:38:58.535Z,990.23
2023-08-03T02:40:43.515Z,990.12
2023-08-03T02:42:28.539Z,990.08
2023-08-03T02:44:13.523Z,990.18
2023-08-03T02:45:58.550Z,990.27
2023-08-03T02:47:43.545Z,990.12
2023-08-03T02:49:28.539Z,990.15
2023-08-03T02:51:13.533Z,990.15
2023-08-03T02:52:58.547Z,990.17
2023-08-03T02:54:43.556Z,990.17
2023-08-03T02:56:28.554Z,990.23
2023-08-03T02:58:13.865Z,990.18
2023-08-03T02:59:58.544Z,990.25
2023-08-03T03:01:43.743Z,990.14
2023-08-03T03:03:28.615Z,990.32
2023-08-03T03:05:13.552Z,990.2
2023-08-03T03:06:58.550Z,990.25
2023-08-03T03:08:43.543Z,990.34
2023-08-03T03:10:28.563Z,990.35
2023-08-03T03:12:13.596Z,990.27
2023-08-03T03:13:58.586Z,990.34
2023-08-03T03:15:43.583Z,990.43
2023-08-03T03:17:28.618Z,990.44
2023-08-03T03:19:13.566Z,990.38
2023-08-03T03:20:58.572Z,990.54
2023-08-03T03:22:43.601Z,990.43
2023-08-03T03:24:28.599Z,990.41
2023-08-03T03:26:13.587Z,990.51
2023-08-03T03:27:58.581Z,990.54
2023-08-03T03:29:43.634Z,990.58
2023-08-03T03:31:28.613Z,990.5
2023-08-03T03:33:13.631Z,990.55
2023-08-03T03:34:58.589Z,990.61
2023-08-03T03:36:43.615Z,990.58
2023-08-03T03:38:28.608Z,990.67
2023-08-03T03:40:13.622Z,990.58
2023-08-03T03:41:58.632Z,990.69
2023-08-03T03:43:43.597Z,990.61
2023-08-03T03:45:28.660Z,990.65
2023-08-03T03:47:13.652Z,990.66
2023-08-03T03:48:58.601Z,990.72
2023-08-03T03:50:43.616Z,990.71
2023-08-03T03:52:28.636Z,990.75
2023-08-03T03:54:13.626Z,990.72
2023-08-03T03:55:58.656Z,990.65
2023-08-03T03:57:43.633Z,990.6
2023-08-03T03:59:28.622Z,990.67
2023-08-03T04:01:13.657Z,990.61
2023-08-03T04:02:58.660Z,990.71
2023-08-03T04:04:43.619Z,990.58
2023-08-03T04:06:28.693Z,990.66
2023-08-03T04:08:13.634Z,990.69
2023-08-03T04:09:58.642Z,990.66
2023-08-03T04:11:43.781Z,990.68
2023-08-03T04:13:28.659Z,990.57
2023-08-03T04:15:14.022Z,990.6
2023-08-03T04:16:58.709Z,990.58
2023-08-03T04:18:43.650Z,990.59
2023-08-03T04:20:28.662Z,990.73
2023-08-03T04:22:13.678Z,990.76
2023-08-03T04:23:58.651Z,990.69
2023-08-03T04:25:43.660Z,990.59
2023-08-03T04:27:28.667Z,990.58
2023-08-03T04:29:13.670Z,990.77
2023-08-03T04:30:58.694Z,990.75
2023-08-03T04:32:43.720Z,990.81
2023-08-03T04:34:28.666Z,990.73
2023-08-03T04:36:13.704Z,990.88
2023-08-03T04:37:58.700Z,990.77
2023-08-03T04:39:43.691Z,990.88
2023-08-03T04:41:28.682Z,990.95
2023-08-03T04:43:13.666Z,990.85
2023-08-03T04:44:58.696Z,990.89
2023-08-03T04:46:43.724Z,990.99
2023-08-03T04:48:28.756Z,990.92
2023-08-03T04:50:13.705Z,990.91
2023-08-03T04:51:58.710Z,991.02
2023-08-03T04:53:43.719Z,990.94
2023-08-03T04:55:28.762Z,991.04
2023-08-03T04:57:13.695Z,990.93
2023-08-03T04:58:58.721Z,991.08
2023-08-03T05:00:43.740Z,991.05
2023-08-03T05:02:28.742Z,991.12
2023-08-03T05:04:13.786Z,991.02
2023-08-03T05:05:58.725Z,991.18
2023-08-03T05:07:43.722Z,991.03
2023-08-03T05:09:28.720Z,991.19
2023-08-03T05:11:13.752Z,991.11
2023-08-03T05:12:58.744Z,991.16
2023-08-03T05:14:43.741Z,991.12
2023-08-03T05:16:28.766Z,991.11
2023-08-03T05:18:13.854Z,991.09
2023-08-03T05:19:58.777Z,991.12
2023-08-03T05:21:44.012Z,991.22
2023-08-03T05:23:28.756Z,991.21
2023-08-03T05:25:16.812Z,991.19
2023-08-03T05:26:58.778Z,991.19
2023-08-03T05:28:43.808Z,991.34
2023-08-03T05:30:28.764Z,991.34
2023-08-03T05:32:13.769Z,991.42
2023-08-03T05:33:58.777Z,991.38
2023-08-03T05:35:43.859Z,991.39
2023-08-03T05:37:29.073Z,991.51
2023-08-03T05:39:13.775Z,991.53
2023-08-03T05:40:58.787Z,991.48
2023-08-03T05:42:43.804Z,991.44
2023-08-03T05:44:28.779Z,991.48
2023-08-03T05:46:13.859Z,991.56
2023-08-03T05:47:58.853Z,991.54
2023-08-03T05:49:43.818Z,991.5
2023-08-03T05:51:28.825Z,991.58
2023-08-03T05:53:13.807Z,991.59
2023-08-03T05:54:58.820Z,991.58
2023-08-03T05:56:43.819Z,991.73
2023-08-03T05:58:28.823Z,991.7
2023-08-03T06:00:13.807Z,991.77
2023-08-03T06:01:58.845Z,991.82
2023-08-03T06:03:43.952Z,991.8
2023-08-03T06:05:28.822Z,991.67
2023-08-03T06:07:13.844Z,991.74
2023-08-03T06:08:58.850Z,991.76
2023-08-03T06:10:43.821Z,991.74
2023-08-03T06:12:28.823Z,991.81
2023-08-03T06:14:13.825Z,991.75
2023-08-03T06:15:58.884Z,991.72
2023-08-03T06:17:43.856Z,991.89
2023-08-03T06:19:28.836Z,991.93
2023-08-03T06:21:13.845Z,992.03
2023-08-03T06:22:58.882Z,992.08
2023-08-03T06:24:43.864Z,992.17
2023-08-03T06:26:28.859Z,992.25
2023-08-03T06:28:13.839Z,992.22
2023-08-03T06:29:58.841Z,992.29
2023-08-03T06:31:44.111Z,992.38
2023-08-03T06:33:28.867Z,992.41
2023-08-03T06:35:13.851Z,992.4
2023-08-03T06:36:58.897Z,992.4
2023-08-03T06:38:43.915Z,992.46
2023-08-03T06:40:28.904Z,992.42
2023-08-03T06:42:13.901Z,992.48
2023-08-03T06:43:58.873Z,992.52
2023-08-03T06:45:43.913Z,992.52
2023-08-03T06:47:28.912Z,992.66
2023-08-03T06:49:13.900Z,992.67
2023-08-03T06:50:58.895Z,992.72
2023-08-03T06:52:43.920Z,992.7
2023-08-03T06:54:28.941Z,992.63
2023-08-03T06:56:13.906Z,992.73
2023-08-03T06:57:58.895Z,992.82
2023-08-03T06:59:43.906Z,992.78
2023-08-03T07:01:28.940Z,992.87
2023-08-03T07:03:13.970Z,992.8
2023-08-03T07:04:58.909Z,992.83
2023-08-03T07:06:43.978Z,992.89
2023-08-03T07:08:28.907Z,992.93
2023-08-03T07:10:13.955Z,992.99
2023-08-03T07:11:58.947Z,993
2023-08-03T07:13:43.970Z,993.07
2023-08-03T07:15:28.952Z,993.12
2023-08-03T07:17:14.448Z,993.14
2023-08-03T07:18:58.949Z,993.15
2023-08-03T07:20:43.942Z,993.16
2023-08-03T07:22:28.943Z,993.19
2023-08-03T07:24:13.948Z,993.25
2023-08-03T07:25:58.977Z,993.25
2023-08-03T07:27:43.953Z,993.3
2023-08-03T07:29:28.976Z,993.26
2023-08-03T07:31:13.953Z,993.28
2023-08-03T07:32:59.102Z,993.34
2023-08-03T07:34:43.970Z,993.35
2023-08-03T07:36:28.972Z,993.37
2023-08-03T07:38:13.963Z,993.39
2023-08-03T07:39:58.965Z,993.54
2023-08-03T07:41:44.202Z,993.6
2023-08-03T07:43:28.999Z,993.53
2023-08-03T07:45:13.996Z,993.61
2023-08-03T07:46:59.002Z,993.68
2023-08-03T07:48:43.977Z,993.63
2023-08-03T07:50:28.977Z,993.63
2023-08-03T07:52:13.979Z,993.69
2023-08-03T07:53:59.016Z,993.64
2023-08-03T07:55:43.992Z,993.71
2023-08-03T07:57:29.049Z,993.68
2023-08-03T07:59:14.004Z,993.79
2023-08-03T08:00:59.070Z,993.75
2023-08-03T08:02:44.038Z,993.82
2023-08-03T08:04:29.001Z,993.82
2023-08-03T08:06:14.008Z,993.86
2023-08-03T08:07:59.058Z,993.82
2023-08-03T08:09:44.645Z,993.84
2023-08-03T08:11:29.064Z,993.95
2023-08-03T08:13:14.032Z,993.9
2023-08-03T08:14:59.007Z,993.9
2023-08-03T08:16:46.816Z,993.81
2023-08-03T08:18:30.458Z,993.99
2023-08-03T08:20:14.033Z,993.9
2023-08-03T08:22:09.530Z,993.96
2023-08-03T08:23:44.010Z,994.06
2023-08-03T08:25:29.068Z,994.01
2023-08-03T08:27:14.189Z,994.1
2023-08-03T08:29:03.925Z,994.18
2023-08-03T08:30:44.045Z,994.1
2023-08-03T08:32:29.140Z,994.16
2023-08-03T08:34:14.058Z,994.21
2023-08-03T08:35:59.042Z,994.13
2023-08-03T08:37:44.042Z,994.21
2023-08-03T08:39:29.093Z,994.26
2023-08-03T08:41:14.054Z,994.2
2023-08-03T08:42:59.095Z,994.15
2023-08-03T08:44:44.085Z,994.4
2023-08-03T08:46:29.128Z,994.43
2023-08-03T08:53:30.040Z,994.49
2023-08-03T09:00:29.090Z,994.6
2023-08-03T09:02:14.106Z,994.57
2023-08-03T09:07:29.122Z,994.65
2023-08-03T09:09:14.081Z,994.6
2023-08-03T09:10:59.107Z,994.7
2023-08-03T09:12:44.090Z,994.77
2023-08-03T09:14:29.199Z,994.68
2023-08-03T09:16:14.119Z,994.75
2023-08-03T09:17:59.163Z,994.8
2023-08-03T09:20:43.839Z,994.78
2023-08-03T09:24:59.129Z,994.83
2023-08-03T09:30:15.998Z,995.01
2023-08-03T09:31:59.317Z,995.02
2023-08-03T09:33:44.194Z,995.15
2023-08-03T09:37:14.140Z,995.04
2023-08-03T09:38:59.144Z,995.16
2023-08-03T09:40:44.154Z,995.12
2023-08-03T09:44:14.139Z,995.13
2023-08-03T09:45:59.170Z,995.2
2023-08-03T09:47:44.254Z,995.21
2023-08-03T09:49:29.188Z,995.33
2023-08-03T09:51:14.161Z,995.27
2023-08-03T09:52:59.133Z,995.39
2023-08-03T09:56:29.194Z,995.37
2023-08-03T09:58:14.156Z,995.47
2023-08-03T09:59:59.173Z,995.46
2023-08-03T10:01:44.303Z,995.65
2023-08-03T10:03:29.231Z,995.61
2023-08-03T10:05:19.870Z,995.57
2023-08-03T10:06:59.206Z,995.52
2023-08-03T10:08:44.177Z,995.64
2023-08-03T10:10:29.199Z,995.66
2023-08-03T10:12:14.195Z,995.65
2023-08-03T10:13:59.174Z,995.61
2023-08-03T10:15:44.411Z,995.7
2023-08-03T10:17:29.215Z,995.67
2023-08-03T10:19:14.253Z,995.77
2023-08-03T10:20:59.276Z,995.78
2023-08-03T10:22:44.258Z,995.81
2023-08-03T10:24:29.216Z,995.84
2023-08-03T10:26:14.857Z,995.97
2023-08-03T10:27:59.224Z,995.97
2023-08-03T10:29:44.217Z,995.99
2023-08-03T10:31:29.245Z,996.1
2023-08-03T10:33:14.219Z,996.07
2023-08-03T10:34:59.277Z,995.99
2023-08-03T10:36:44.252Z,996.17
2023-08-03T10:38:29.218Z,996.18
2023-08-03T10:40:14.278Z,996.18
2023-08-03T10:41:59.234Z,996.15
2023-08-03T10:43:44.279Z,996.35
2023-08-03T10:45:29.309Z,996.34
2023-08-03T10:47:14.377Z,996.25
2023-08-03T10:48:59.521Z,996.41
2023-08-03T10:50:44.282Z,996.41
2023-08-03T10:52:29.298Z,996.29
2023-08-03T10:54:15.825Z,996.44
2023-08-03T10:55:59.296Z,996.43
2023-08-03T10:57:44.255Z,996.47
2023-08-03T10:59:29.268Z,996.51
2023-08-03T11:01:14.315Z,996.59
2023-08-03T11:02:59.419Z,996.58
2023-08-03T11:04:44.257Z,996.58
2023-08-03T11:06:29.316Z,996.63
2023-08-03T11:08:14.282Z,996.58
2023-08-03T11:09:59.293Z,996.66
2023-08-03T11:11:44.577Z,996.66
2023-08-03T11:13:29.346Z,996.68
2023-08-03T11:15:14.279Z,996.72
2023-08-03T11:16:59.363Z,996.73
2023-08-03T11:18:44.333Z,996.72
2023-08-03T11:20:29.315Z,996.81
2023-08-03T11:22:14.367Z,996.78
2023-08-03T11:23:59.316Z,996.8
2023-08-03T11:25:44.356Z,996.84
2023-08-03T11:27:29.344Z,996.89
2023-08-03T11:29:14.340Z,996.92
2023-08-03T11:30:59.330Z,996.88
2023-08-03T11:32:44.386Z,997.03
2023-08-03T11:34:29.402Z,996.98
2023-08-03T11:36:14.346Z,997.01
2023-08-03T11:37:59.420Z,997.09
2023-08-03T11:39:44.360Z,997.06
2023-08-03T11:41:32.964Z,996.96
2023-08-03T11:43:14.336Z,997.15
2023-08-03T11:44:59.347Z,997.25
2023-08-03T11:46:44.474Z,997.23
2023-08-03T11:48:29.332Z,997.27
2023-08-03T11:50:14.458Z,997.3
2023-08-03T11:51:59.356Z,997.37
2023-08-03T11:53:44.369Z,997.44
2023-08-03T11:55:29.402Z,997.34
2023-08-03T11:57:14.345Z,997.53
2023-08-03T11:58:59.388Z,997.56
2023-08-03T12:00:44.346Z,997.43
2023-08-03T12:02:29.460Z,997.5
2023-08-03T12:04:15.086Z,997.58
2023-08-03T12:06:07.779Z,997.62
2023-08-03T12:09:29.406Z,997.65
2023-08-03T12:11:16.070Z,997.72
2023-08-03T12:13:00.960Z,997.75
2023-08-03T12:14:44.379Z,997.88
2023-08-03T12:16:29.403Z,997.87
2023-08-03T12:18:14.407Z,997.82
2023-08-03T12:19:59.385Z,997.87
2023-08-03T12:21:44.611Z,997.9
2023-08-03T12:23:29.371Z,997.92
2023-08-03T12:25:14.432Z,997.81
2023-08-03T12:28:44.403Z,997.92
2023-08-03T12:30:29.445Z,997.99
2023-08-03T12:32:14.408Z,998.04
2023-08-03T12:33:59.507Z,998.18
2023-08-03T12:35:44.405Z,997.98
2023-08-03T12:37:29.438Z,998.1
2023-08-03T12:39:14.439Z,998.07
2023-08-03T12:40:59.429Z,998.13
2023-08-03T12:42:44.459Z,998.05
2023-08-03T12:44:29.444Z,998.13
2023-08-03T12:46:14.501Z,998.1
2023-08-03T12:47:59.463Z,998.32
2023-08-03T12:49:44.731Z,998.26
2023-08-03T12:51:29.421Z,998.24
2023-08-03T12:53:14.498Z,998.28
2023-08-03T12:54:59.436Z,998.35
2023-08-03T12:56:44.794Z,998.34
2023-08-03T12:58:29.432Z,998.37
2023-08-03T13:00:14.450Z,998.32
2023-08-03T13:01:59.534Z,998.43
2023-08-03T13:03:44.430Z,998.3
2023-08-03T13:05:29.556Z,998.38
2023-08-03T13:07:14.470Z,998.42
2023-08-03T13:08:59.448Z,998.43
2023-08-03T13:10:44.498Z,998.54
2023-08-03T13:12:29.864Z,998.49
2023-08-03T13:14:14.530Z,998.54
2023-08-03T13:15:59.604Z,998.54
2023-08-03T13:17:44.614Z,998.73
2023-08-03T13:19:29.770Z,998.7
2023-08-03T13:21:14.476Z,998.87
2023-08-03T13:22:59.498Z,998.74
2023-08-03T13:24:44.486Z,998.76
2023-08-03T13:26:30.070Z,998.85
2023-08-03T13:28:14.517Z,998.83
2023-08-03T13:29:59.499Z,998.98
2023-08-03T13:31:44.511Z,998.89
2023-08-03T13:33:29.501Z,998.99
2023-08-03T13:35:14.511Z,999.13
2023-08-03T13:36:59.521Z,999.07
2023-08-03T13:38:44.528Z,999.2
2023-08-03T13:40:29.506Z,999.26
2023-08-03T13:42:14.514Z,999.18
2023-08-03T13:43:59.571Z,999.16
2023-08-03T13:45:46.213Z,999.24
2023-08-03T13:47:29.585Z,999.22
2023-08-03T13:49:14.541Z,999.23
2023-08-03T13:51:00.339Z,999.34
2023-08-03T13:52:44.504Z,999.29
2023-08-03T13:54:29.541Z,999.28
2023-08-03T13:56:14.530Z,999.38
2023-08-03T14:03:14.582Z,999.57
2023-08-03T14:05:01.768Z,999.58
2023-08-03T14:08:30.152Z,999.65
2023-08-03T14:11:59.735Z,999.68
2023-08-03T14:17:53.634Z,999.83
2023-08-03T14:18:59.579Z,999.83
2023-08-03T14:22:29.983Z,1000.01
2023-08-03T14:24:25.287Z,1000.03
2023-08-03T14:25:59.567Z,1000.02
2023-08-03T14:29:29.580Z,1000.11
2023-08-03T14:31:14.705Z,1000.12
2023-08-03T14:32:59.933Z,1000.28
2023-08-03T14:36:29.661Z,1000.21
2023-08-03T14:38:14.592Z,1000.28
2023-08-03T14:39:59.570Z,1000.17
2023-08-03T14:43:29.579Z,1000.34
2023-08-03T14:45:15.045Z,1000.39
2023-08-03T14:47:01.396Z,1000.49
2023-08-03T14:48:47.496Z,1000.47
2023-08-03T14:50:30.568Z,1000.58
2023-08-03T14:54:00.720Z,1000.61
2023-08-03T14:57:29.628Z,1000.69
2023-08-03T14:59:14.636Z,1000.84
2023-08-03T15:00:59.614Z,1000.86
2023-08-03T15:02:44.713Z,1000.91
2023-08-03T15:04:29.880Z,1000.85
2023-08-03T15:06:14.681Z,1000.93
2023-08-03T15:07:59.625Z,1000.92
2023-08-03T15:09:44.673Z,1000.92
2023-08-03T15:11:29.613Z,1001.03
2023-08-03T15:13:14.604Z,1000.99
2023-08-03T15:15:08.145Z,1001.06
2023-08-03T15:16:45.129Z,1001.05
2023-08-03T15:18:30.374Z,1001.1
2023-08-03T15:20:14.910Z,1001.19
2023-08-03T15:21:59.762Z,1001.15
2023-08-03T15:23:44.821Z,1001.22
2023-08-03T15:25:30.345Z,1001.32
2023-08-03T15:29:00.807Z,1001.27
2023-08-03T15:32:33.624Z,1001.43
2023-08-03T15:34:15.498Z,1001.47
2023-08-03T15:36:00.744Z,1001.38
2023-08-03T15:37:44.867Z,1001.55
2023-08-03T15:39:30.286Z,1001.57
2023-08-03T15:41:16.452Z,1001.53
2023-08-03T15:43:00.919Z,1001.48
2023-08-03T15:44:45.393Z,1001.51
2023-08-03T15:46:34.908Z,1001.71
2023-08-03T15:50:02.014Z,1001.7
2023-08-03T15:51:47.285Z,1001.71
2023-08-03T15:53:33.628Z,1001.71
2023-08-03T15:56:59.783Z,1001.72
2023-08-03T15:58:44.695Z,1001.73
2023-08-03T16:00:29.703Z,1001.73
2023-08-03T16:02:14.758Z,1001.85
2023-08-03T16:03:59.980Z,1001.8
2023-08-03T16:05:44.728Z,1001.84
2023-08-03T16:07:29.743Z,1001.83
2023-08-03T16:09:14.703Z,1001.78
2023-08-03T16:10:59.692Z,1001.84
2023-08-03T16:12:44.732Z,1001.92
2023-08-03T16:14:29.721Z,1001.88
2023-08-03T16:16:14.761Z,1001.82
2023-08-03T16:17:59.755Z,1001.78
2023-08-03T16:19:44.853Z,1001.77
2023-08-03T16:21:29.767Z,1001.81
2023-08-03T16:23:14.733Z,1001.79
2023-08-03T16:24:59.709Z,1001.78
2023-08-03T16:26:44.959Z,1001.83
2023-08-03T16:28:29.748Z,1001.86
2023-08-03T16:30:14.755Z,1001.88
2023-08-03T16:31:59.806Z,1001.86
2023-08-03T16:33:45.504Z,1001.83
2023-08-03T16:35:29.748Z,1002.01
2023-08-03T16:37:14.836Z,1001.92
2023-08-03T16:38:59.748Z,1001.95
2023-08-03T16:40:46.776Z,1001.99
2023-08-03T16:42:29.784Z,1002.02
2023-08-03T16:44:14.839Z,1002.14
2023-08-03T16:46:00.134Z,1002.25
2023-08-03T16:47:44.779Z,1002.21
2023-08-03T16:49:29.774Z,1002.42
2023-08-03T16:51:14.759Z,1002.31
2023-08-03T16:52:59.834Z,1002.39
2023-08-03T16:54:44.879Z,1002.36
2023-08-03T16:56:29.782Z,1002.37
2023-08-03T16:58:14.781Z,1002.45
2023-08-03T16:59:59.787Z,1002.43
2023-08-03T17:01:44.941Z,1002.44
2023-08-03T17:03:29.866Z,1002.37
2023-08-03T17:05:14.801Z,1002.52
2023-08-03T17:06:59.842Z,1002.55
2023-08-03T17:08:44.844Z,1002.63
2023-08-03T17:10:29.827Z,1002.63
2023-08-03T17:12:14.798Z,1002.66
2023-08-03T17:13:59.820Z,1002.71
2023-08-03T17:15:44.878Z,1002.74
2023-08-03T17:17:29.834Z,1002.73
2023-08-03T17:19:14.813Z,1002.77
2023-08-03T17:20:59.819Z,1002.87
2023-08-03T17:22:44.851Z,1002.93
2023-08-03T17:24:29.852Z,1002.92
2023-08-03T17:26:14.840Z,1002.86
2023-08-03T17:27:59.826Z,1002.97
2023-08-03T17:29:44.851Z,1002.99
2023-08-03T17:31:29.858Z,1002.99
2023-08-03T17:33:14.880Z,1003.02
2023-08-03T17:34:59.840Z,1003.12
2023-08-03T17:36:45.171Z,1003.11
2023-08-03T17:38:29.881Z,1003.17
2023-08-03T17:40:14.922Z,1003.19
2023-08-03T17:41:59.870Z,1003.25
2023-08-03T17:43:44.886Z,1003.32
2023-08-03T17:45:29.864Z,1003.31
2023-08-03T17:47:14.861Z,1003.37
2023-08-03T17:48:59.946Z,1003.5
2023-08-03T17:50:45.244Z,1003.57
2023-08-03T17:52:29.867Z,1003.47
2023-08-03T17:54:14.892Z,1003.53
2023-08-03T17:55:59.911Z,1003.6
2023-08-03T17:57:44.958Z,1003.56
2023-08-03T17:59:29.871Z,1003.6
2023-08-03T18:01:14.995Z,1003.65
2023-08-03T18:02:59.987Z,1003.69
2023-08-03T18:04:44.917Z,1003.63
2023-08-03T18:06:29.948Z,1003.67
2023-08-03T18:08:14.878Z,1003.69
2023-08-03T18:10:00.749Z,1003.81
2023-08-03T18:11:44.935Z,1003.89
2023-08-03T18:13:29.916Z,1003.86
2023-08-03T18:15:14.908Z,1003.9
2023-08-03T18:17:00.023Z,1003.83
2023-08-03T18:18:44.958Z,1003.92
2023-08-03T18:20:29.913Z,1003.99
2023-08-03T18:22:15.246Z,1004.02
2023-08-03T18:23:59.939Z,1004.09
2023-08-03T18:25:44.958Z,1004.1
2023-08-03T18:27:29.986Z,1004.06
2023-08-03T18:29:14.925Z,1003.97
2023-08-03T18:30:59.966Z,1004.05
2023-08-03T18:32:44.930Z,1004.08
2023-08-03T18:34:29.935Z,1004.07
2023-08-03T18:36:14.929Z,1004.04
2023-08-03T18:37:59.960Z,1004.1
2023-08-03T18:39:44.929Z,1004.17
2023-08-03T18:41:29.982Z,1004.25
2023-08-03T18:43:14.975Z,1004.16
2023-08-03T18:44:59.940Z,1004.25
2023-08-03T18:46:45.497Z,1004.25
2023-08-03T18:48:29.958Z,1004.23
2023-08-03T18:50:14.949Z,1004.33
2023-08-03T18:51:59.975Z,1004.37
2023-08-03T18:53:44.971Z,1004.32
2023-08-03T18:55:29.981Z,1004.4
2023-08-03T18:57:14.973Z,1004.47
2023-08-03T18:58:59.977Z,1004.38
2023-08-03T19:00:44.954Z,1004.39
2023-08-03T19:02:29.989Z,1004.47
2023-08-03T19:04:14.953Z,1004.55
2023-08-03T19:05:59.967Z,1004.44
2023-08-03T19:07:44.957Z,1004.53
2023-08-03T19:09:29.993Z,1004.57
2023-08-03T19:11:14.991Z,1004.48
2023-08-03T19:12:59.973Z,1004.61
2023-08-03T19:14:44.984Z,1004.65
2023-08-03T19:16:30.001Z,1004.74
2023-08-03T19:18:14.978Z,1004.72
2023-08-03T19:19:59.988Z,1004.75
2023-08-03T19:21:45.258Z,1004.79
2023-08-03T19:23:29.988Z,1004.8
2023-08-03T19:25:14.976Z,1004.84
2023-08-03T19:27:00.004Z,1004.82
2023-08-03T19:28:44.995Z,1004.95
2023-08-03T19:30:30.036Z,1004.93
2023-08-03T19:32:14.994Z,1004.86
2023-08-03T19:33:59.995Z,1005.01
2023-08-03T19:35:44.995Z,1005.04
2023-08-03T19:37:29.998Z,1005.08
2023-08-03T19:39:14.988Z,1005.11
2023-08-03T19:41:00.002Z,1005.17
2023-08-03T19:42:45.001Z,1005.11
2023-08-03T19:44:30.018Z,1005.12
2023-08-03T19:46:15.042Z,1005.22
2023-08-03T19:48:00.124Z,1005.2
2023-08-03T19:56:45.041Z,1005.19
2023-08-03T20:07:15.110Z,1005.42
2023-08-03T20:09:00.116Z,1005.41
2023-08-03T20:10:45.043Z,1005.39
2023-08-03T20:14:15.152Z,1005.45
2023-08-03T20:16:00.084Z,1005.53
2023-08-03T20:17:45.093Z,1005.52
2023-08-03T20:19:30.086Z,1005.58
2023-08-03T20:21:15.062Z,1005.6
2023-08-03T20:23:00.126Z,1005.57
2023-08-03T20:24:45.076Z,1005.58
2023-08-03T20:30:01.471Z,1005.57
2023-08-03T20:31:45.090Z,1005.53
2023-08-03T20:33:30.106Z,1005.71
2023-08-03T20:35:15.082Z,1005.59
2023-08-03T20:37:00.114Z,1005.79
2023-08-03T20:38:57.539Z,1005.73
2023-08-03T20:49:15.272Z,1005.98
2023-08-03T20:51:00.128Z,1005.98
2023-08-03T20:52:45.126Z,1006
2023-08-03T20:56:15.129Z,1006.04
2023-08-03T20:58:00.141Z,1005.98
2023-08-03T20:59:45.120Z,1006
2023-08-03T21:01:30.184Z,1006.09
2023-08-03T21:03:15.162Z,1006.16
2023-08-03T21:05:03.417Z,1006.14
2023-08-03T21:06:45.115Z,1006.18
2023-08-03T21:08:30.475Z,1006.2
2023-08-03T21:12:00.132Z,1006.2
2023-08-03T21:13:45.192Z,1006.22
2023-08-03T21:15:30.209Z,1006.24
2023-08-03T21:17:15.167Z,1006.24
2023-08-03T21:20:45.212Z,1006.25
2023-08-03T21:22:30.165Z,1006.22
2023-08-03T21:24:15.164Z,1006.31
2023-08-03T21:26:00.162Z,1006.31
2023-08-03T21:27:45.157Z,1006.32
2023-08-03T21:29:30.173Z,1006.32
2023-08-03T21:31:15.219Z,1006.38
2023-08-03T21:33:00.213Z,1006.29
2023-08-03T21:34:45.174Z,1006.34
2023-08-03T21:36:30.213Z,1006.34
2023-08-03T21:38:15.182Z,1006.42
2023-08-03T21:40:00.615Z,1006.35
2023-08-03T21:41:45.462Z,1006.37
2023-08-03T21:43:30.184Z,1006.46
2023-08-03T21:45:15.205Z,1006.44
2023-08-03T21:47:00.212Z,1006.41
2023-08-03T21:48:45.193Z,1006.44
2023-08-03T21:50:30.203Z,1006.5
2023-08-03T21:52:15.222Z,1006.52
2023-08-03T21:54:00.180Z,1006.52
2023-08-03T21:55:45.200Z,1006.45
2023-08-03T21:57:30.201Z,1006.57
2023-08-03T21:59:15.234Z,1006.51
2023-08-03T22:01:00.238Z,1006.46
2023-08-03T22:02:45.256Z,1006.46
2023-08-03T22:04:30.251Z,1006.55
2023-08-03T22:06:15.241Z,1006.5
2023-08-03T22:08:00.226Z,1006.54
2023-08-03T22:09:45.230Z,1006.48
2023-08-03T22:11:30.226Z,1006.49
2023-08-03T22:13:15.230Z,1006.58
2023-08-03T22:15:00.253Z,1006.46
2023-08-03T22:16:45.241Z,1006.44
2023-08-03T22:18:30.240Z,1006.57
2023-08-03T22:20:15.249Z,1006.53
2023-08-03T22:22:00.229Z,1006.58
2023-08-03T22:23:45.258Z,1006.55
2023-08-03T22:25:30.267Z,1006.53
2023-08-03T22:27:15.266Z,1006.55
2023-08-03T22:29:00.264Z,1006.59
2023-08-03T22:30:45.272Z,1006.56
2023-08-03T22:32:30.280Z,1006.58
2023-08-03T22:34:15.268Z,1006.61
2023-08-03T22:36:00.276Z,1006.7
2023-08-03T22:37:45.259Z,1006.68
2023-08-03T22:39:30.334Z,1006.72
2023-08-03T22:41:15.291Z,1006.69
2023-08-03T22:43:00.325Z,1006.73
2023-08-03T22:44:45.288Z,1006.77
2023-08-03T22:46:30.378Z,1006.75
2023-08-03T22:48:15.282Z,1006.74
2023-08-03T22:50:00.324Z,1006.77
2023-08-03T22:51:45.450Z,1006.77
2023-08-03T22:53:30.281Z,1006.84
2023-08-03T22:55:15.333Z,1007
2023-08-03T22:57:00.313Z,1006.8
2023-08-03T22:58:45.399Z,1006.89
2023-08-03T23:00:30.299Z,1006.79
2023-08-03T23:02:15.300Z,1006.89
2023-08-03T23:04:00.460Z,1006.96
2023-08-03T23:05:46.591Z,1006.9
2023-08-03T23:07:30.336Z,1006.96
2023-08-03T23:09:15.319Z,1006.94
2023-08-03T23:11:00.341Z,1006.86
2023-08-03T23:12:45.298Z,1006.94
2023-08-03T23:14:30.334Z,1006.88